Time;durP1;ratioP1;P1;durP2;ratioP2;P2;SDS_P1;SDS_P2;PMS_P1;PMS_P2;Temp;Humidity;BMP_temperature;BMP_pressure;BME280_temperature;BME280_humidity;BME280_pressure;Samples;Min_cycle;Max_cycle;Signal;HPM_P1;HPM_P2
2023/10/11 00:01:06;;;;;;;12.00;5.95;;;18.60;89.50;;;;;;7380629;19;20015;-78
2023/10/11 00:03:45;;;;;;;19.95;6.93;;;18.60;89.50;;;;;;7376853;19;20006;-79
2023/10/11 00:06:17;;;;;;;19.92;6.60;;;18.60;89.50;;;;;;7401958;19;20011;-78
2023/10/11 00:08:46;;;;;;;20.52;6.43;;;18.50;89.40;;;;;;7377923;19;20011;-78
2023/10/11 00:11:20;;;;;;;17.70;6.78;;;18.50;89.70;;;;;;7377830;19;20024;-78
2023/10/11 00:13:49;;;;;;;17.80;6.22;;;18.50;89.60;;;;;;7378568;19;20553;-78
2023/10/11 00:16:21;;;;;;;13.88;5.85;;;18.50;89.50;;;;;;7376681;19;20020;-79
2023/10/11 00:18:49;;;;;;;20.95;5.97;;;18.50;89.40;;;;;;7377974;19;20010;-79
2023/10/11 00:24:32;;;;;;;26.43;6.17;;;18.40;89.40;;;;;;7281943;19;2004730;-78
2023/10/11 00:27:02;;;;;;;17.15;5.43;;;18.40;89.50;;;;;;7408019;19;20012;-79
2023/10/11 00:29:31;;;;;;;15.27;5.85;;;18.40;89.70;;;;;;7400481;19;20011;-79
2023/10/11 00:32:04;;;;;;;12.38;6.35;;;18.30;89.60;;;;;;7405158;19;20007;-79
2023/10/11 00:34:34;;;;;;;14.45;6.53;;;18.30;90.10;;;;;;7410653;19;20031;-79
2023/10/11 00:37:05;;;;;;;19.48;6.15;;;18.30;89.70;;;;;;7398784;19;20085;-79
2023/10/11 00:39:40;;;;;;;13.18;5.88;;;18.20;89.70;;;;;;7397265;19;20006;-79
2023/10/11 00:42:10;;;;;;;12.70;6.05;;;18.20;89.80;;;;;;7413729;19;20010;-80
2023/10/11 00:44:41;;;;;;;23.25;6.13;;;18.20;89.70;;;;;;7390967;19;20023;-79
2023/10/11 00:47:12;;;;;;;11.68;5.82;;;18.30;89.80;;;;;;7389563;19;20354;-80
2023/10/11 00:49:41;;;;;;;;;;;18.30;89.70;;;;;;7390742;19;20006;-80
2023/10/11 00:52:13;;;;;;;14.93;6.72;;;18.30;89.60;;;;;;7385056;19;19903;-80
2023/10/11 00:54:46;;;;;;;23.33;6.45;;;18.30;89.50;;;;;;7386681;19;20002;-79
2023/10/11 00:57:15;;;;;;;14.63;6.68;;;18.30;89.20;;;;;;7409738;19;20022;-80
2023/10/11 00:59:45;;;;;;;12.77;5.80;;;18.30;89.70;;;;;;7387935;19;20006;-79
2023/10/11 01:02:14;;;;;;;30.17;6.25;;;18.30;89.40;;;;;;7389942;19;20530;-79
2023/10/11 01:04:43;;;;;;;19.25;6.05;;;18.30;89.40;;;;;;7388346;19;20049;-78
2023/10/11 01:07:12;;;;;;;21.23;6.03;;;18.30;89.20;;;;;;7385154;19;20017;-80
2023/10/11 01:09:41;;;;;;;18.15;6.30;;;18.30;89.00;;;;;;7384774;19;20007;-79
2023/10/11 01:12:13;;;;;;;15.65;5.75;;;18.30;89.00;;;;;;7410458;19;20010;-80
2023/10/11 01:14:56;;;;;;;16.10;6.22;;;18.30;88.80;;;;;;7390614;19;20016;-78
2023/10/11 01:17:26;;;;;;;14.90;5.97;;;18.30;88.90;;;;;;7385819;19;20082;-79
2023/10/11 01:19:54;;;;;;;12.55;5.68;;;18.20;88.90;;;;;;7383107;19;20016;-79
2023/10/11 01:22:26;;;;;;;15.90;5.65;;;18.20;89.10;;;;;;7384303;19;20019;-79
2023/10/11 01:24:58;;;;;;;14.45;6.45;;;18.10;89.20;;;;;;7389839;19;20025;-79
2023/10/11 01:27:30;;;;;;;16.27;5.78;;;18.10;89.20;;;;;;7404612;19;20052;-78
2023/10/11 01:30:00;;;;;;;11.63;5.90;;;18.00;89.40;;;;;;7384685;19;20006;-79
2023/10/11 01:32:29;;;;;;;16.05;6.10;;;18.00;90.10;;;;;;7382111;19;20009;-78
2023/10/11 01:34:58;;;;;;;14.95;6.20;;;18.00;89.60;;;;;;7384305;19;20102;-80
2023/10/11 01:37:31;;;;;;;19.10;5.63;;;17.90;89.70;;;;;;7382178;19;20031;-79
2023/10/11 01:39:59;;;;;;;14.20;6.32;;;17.90;89.90;;;;;;7387081;19;20021;-79
2023/10/11 01:42:28;;;;;;;17.35;6.22;;;17.90;90.00;;;;;;7407475;19;20092;-78
2023/10/11 01:44:57;;;;;;;15.40;6.38;;;17.80;89.90;;;;;;7386001;19;20031;-78
2023/10/11 01:47:25;;;;;;;16.50;6.07;;;17.80;90.00;;;;;;7384952;19;20003;-80
2023/10/11 01:49:55;;;;;;;14.73;6.13;;;17.80;90.00;;;;;;7387712;19;20010;-79
2023/10/11 01:52:25;;;;;;;18.10;6.30;;;17.80;90.10;;;;;;7384717;19;20007;-79
2023/10/11 01:54:58;;;;;;;12.80;6.37;;;17.70;90.10;;;;;;7387484;19;20037;-78
2023/10/11 01:57:27;;;;;;;16.95;6.35;;;17.70;90.00;;;;;;7408698;19;20058;-79
2023/10/11 01:59:56;;;;;;;19.48;5.80;;;17.70;90.10;;;;;;7386558;19;20010;-80
2023/10/11 02:02:27;;;;;;;16.25;6.22;;;17.70;90.00;;;;;;7382930;19;20002;-79
2023/10/11 02:04:59;;;;;;;18.38;6.45;;;17.70;90.00;;;;;;7383183;19;20031;-79
2023/10/11 02:07:29;;;;;;;18.50;5.97;;;17.70;89.90;;;;;;7383575;19;20050;-79
2023/10/11 02:10:00;;;;;;;12.48;6.32;;;17.80;89.70;;;;;;7383829;19;20011;-79
2023/10/11 02:12:29;;;;;;;12.05;5.43;;;17.70;89.60;;;;;;7404958;19;20022;-79
2023/10/11 02:15:01;;;;;;;16.10;6.13;;;17.70;89.40;;;;;;7384391;19;20239;-79
2023/10/11 02:17:33;;;;;;;17.70;6.85;;;17.70;89.40;;;;;;7387463;19;20381;-79
2023/10/11 02:20:03;;;;;;;19.90;6.18;;;17.80;89.40;;;;;;7386585;19;20070;-80
2023/10/11 02:22:33;;;;;;;14.80;6.22;;;17.80;90.10;;;;;;7390180;19;20002;-79
2023/10/11 02:25:04;;;;;;;18.80;5.80;;;17.70;89.50;;;;;;7406898;19;20014;-78
2023/10/11 02:27:33;;;;;;;14.20;6.68;;;17.80;89.50;;;;;;7416197;19;20114;-78
2023/10/11 02:30:06;;;;;;;14.02;6.10;;;17.80;89.30;;;;;;7428199;19;20003;-78
2023/10/11 02:32:38;;;;;;;13.15;5.97;;;17.80;89.20;;;;;;7405929;19;20007;-77
2023/10/11 02:35:12;;;;;;;23.20;5.72;;;17.80;89.00;;;;;;7391234;19;20070;-79
2023/10/11 02:37:45;;;;;;;20.55;5.63;;;17.80;88.80;;;;;;7383564;19;20014;-79
2023/10/11 02:40:22;;;;;;;14.85;6.18;;;17.70;89.00;;;;;;7392021;19;20251;-79
2023/10/11 02:42:55;;;;;;;14.68;5.78;;;17.70;89.10;;;;;;7391037;19;20010;-80
2023/10/11 02:45:24;;;;;;;17.55;5.97;;;17.70;89.30;;;;;;7404146;19;19999;-79
2023/10/11 02:47:59;;;;;;;19.08;6.45;;;17.60;89.30;;;;;;7383729;19;20545;-80
2023/10/11 02:50:28;;;;;;;14.00;5.95;;;17.60;89.30;;;;;;7382986;19;20013;-79
2023/10/11 02:53:04;;;;;;;11.52;5.88;;;17.60;89.20;;;;;;7380372;19;20357;-79
2023/10/11 02:55:38;;;;;;;14.90;7.03;;;17.60;89.10;;;;;;7384347;19;20408;-79
2023/10/11 02:58:08;;;;;;;25.42;6.57;;;17.60;89.20;;;;;;7385507;19;20003;-79
2023/10/11 03:00:43;;;;;;;15.73;6.07;;;17.60;89.30;;;;;;7385888;19;20007;-79
2023/10/11 03:03:15;;;;;;;11.25;5.65;;;17.60;89.50;;;;;;7408930;19;20082;-79
2023/10/11 03:05:45;;;;;;;18.13;6.70;;;17.50;89.60;;;;;;7381850;19;20260;-79
2023/10/11 03:08:19;;;;;;;13.38;5.65;;;17.50;89.50;;;;;;7384750;19;20016;-79
2023/10/11 03:10:57;;;;;;;10.90;6.03;;;17.50;89.40;;;;;;7386081;19;20007;-78
2023/10/11 03:13:29;;;;;;;17.73;6.82;;;17.50;89.40;;;;;;7384036;19;20015;-79
2023/10/11 03:15:59;;;;;;;15.95;5.82;;;17.50;89.30;;;;;;7383750;19;20342;-79
2023/10/11 03:18:31;;;;;;;18.95;7.00;;;17.50;89.40;;;;;;7402965;19;19999;-79
2023/10/11 03:21:08;;;;;;;16.38;5.60;;;17.50;89.20;;;;;;7382945;19;20031;-79
2023/10/11 03:23:43;;;;;;;13.65;5.72;;;17.40;89.10;;;;;;7383458;19;20007;-78
2023/10/11 03:26:22;;;;;;;18.05;6.78;;;17.50;89.20;;;;;;7381249;19;20011;-78
2023/10/11 03:28:57;;;;;;;22.63;6.32;;;17.40;89.00;;;;;;7380157;19;20265;-77
2023/10/11 03:31:27;;;;;;;11.07;5.70;;;17.40;89.10;;;;;;7379418;19;20016;-77
2023/10/11 03:33:57;;;;;;;15.88;6.88;;;17.40;89.10;;;;;;7379517;19;20063;-78
2023/10/11 03:36:34;;;;;;;20.05;7.07;;;17.40;89.10;;;;;;7400616;19;20035;-78
2023/10/11 03:39:09;;;;;;;25.45;7.00;;;17.40;89.20;;;;;;7381558;19;20239;-77
2023/10/11 03:41:45;;;;;;;18.55;6.63;;;17.40;89.00;;;;;;7382143;19;20011;-78
2023/10/11 03:44:17;;;;;;;20.75;6.30;;;17.40;89.00;;;;;;7381664;19;20082;-78
2023/10/11 03:46:48;;;;;;;18.42;6.00;;;17.40;89.00;;;;;;7380575;19;20021;-78
2023/10/11 03:49:36;;;;;;;18.27;6.25;;;17.40;89.00;;;;;;7384974;19;20028;-77
2023/10/11 03:52:16;;;;;;;17.58;5.90;;;17.40;88.70;;;;;;7385261;19;20024;-77
2023/10/11 03:54:45;;;;;;;18.95;6.00;;;17.40;88.90;;;;;;7379994;19;20266;-78
2023/10/11 03:57:17;;;;;;;10.13;5.47;;;17.40;89.10;;;;;;7401949;19;20051;-78
2023/10/11 03:59:48;;;;;;;18.50;6.15;;;17.40;89.10;;;;;;7378524;19;20007;-77
2023/10/11 04:02:17;;;;;;;17.05;6.13;;;17.30;89.10;;;;;;7379851;19;20007;-78
2023/10/11 04:04:48;;;;;;;24.67;6.90;;;17.30;89.00;;;;;;7380230;19;20003;-79
2023/10/11 04:07:22;;;;;;;17.38;6.15;;;17.30;88.80;;;;;;7379892;19;20003;-78
2023/10/11 04:09:51;;;;;;;18.75;6.25;;;17.30;88.50;;;;;;7378950;19;20030;-78
2023/10/11 04:12:29;;;;;;;13.77;5.78;;;17.30;88.30;;;;;;7400693;19;20035;-78
2023/10/11 04:15:06;;;;;;;19.67;6.10;;;17.30;88.30;;;;;;7379114;19;20105;-77
2023/10/11 04:17:38;;;;;;;20.27;6.05;;;17.30;88.30;;;;;;7380480;19;20002;-78
2023/10/11 04:20:29;;;;;;;20.95;6.00;;;17.30;88.30;;;;;;7384956;19;20081;-79
2023/10/11 04:23:07;;;;;;;18.65;6.05;;;17.30;88.40;;;;;;7385076;19;20007;-79
2023/10/11 04:25:39;;;;;;;15.30;6.80;;;17.30;88.30;;;;;;7384766;19;20011;-79
2023/10/11 04:28:13;;;;;;;15.02;5.68;;;17.30;88.10;;;;;;7386536;19;20038;-80
2023/10/11 04:30:41;;;;;;;13.45;5.85;;;17.30;88.20;;;;;;7383954;19;20098;-80
2023/10/11 04:33:12;;;;;;;17.23;6.20;;;17.20;88.30;;;;;;7411766;19;20093;-78
2023/10/11 04:35:42;;;;;;;18.75;6.25;;;17.20;88.60;;;;;;7392173;19;20007;-78
2023/10/11 04:38:13;;;;;;;18.30;6.57;;;17.20;88.80;;;;;;7400200;19;20018;-77
2023/10/11 04:40:49;;;;;;;14.23;6.47;;;17.10;88.60;;;;;;7402242;19;20003;-77
2023/10/11 04:43:29;;;;;;;19.05;6.75;;;17.10;88.90;;;;;;7398642;19;20394;-78
2023/10/11 04:46:00;;;;;;;13.43;6.07;;;17.10;89.10;;;;;;7381592;19;20032;-79
2023/10/11 04:48:36;;;;;;;20.47;7.10;;;17.10;89.50;;;;;;7398515;19;20264;-79
2023/10/11 04:51:21;;;;;;;18.58;6.63;;;17.10;89.50;;;;;;7382706;19;20009;-77
2023/10/11 04:53:57;;;;;;;19.95;7.22;;;17.00;89.00;;;;;;7376901;19;19998;-75
2023/10/11 04:59:27;;;;;;;19.98;6.65;;;17.00;88.80;;;;;;7377884;19;20366;-76
2023/10/11 05:02:04;;;;;;;23.85;6.43;;;17.00;89.80;;;;;;7379290;19;20007;-76
2023/10/11 05:04:33;;;;;;;16.38;6.82;;;17.00;88.90;;;;;;7379574;19;20033;-77
2023/10/11 05:07:07;;;;;;;15.20;6.25;;;17.00;88.90;;;;;;7378402;19;20003;-77
2023/10/11 05:09:41;;;;;;;20.08;6.35;;;17.00;88.90;;;;;;7381215;19;20007;-77
2023/10/11 05:12:19;;;;;;;18.70;6.47;;;17.00;88.80;;;;;;7401595;19;19998;-76
2023/10/11 05:15:01;;;;;;;16.95;6.70;;;17.00;88.90;;;;;;7381929;19;20013;-76
2023/10/11 05:20:23;;;;;;;13.80;5.85;;;16.90;89.10;;;;;;7385039;19;20010;-77
2023/10/11 05:22:49;;;;;;;16.42;5.95;;;16.90;89.20;;;;;;7387398;19;20011;-77
2023/10/11 05:28:07;;;;;;;15.45;5.85;;;16.90;89.20;;;;;;7385858;19;20385;-78
2023/10/11 05:30:37;;;;;;;13.48;5.72;;;16.90;88.80;;;;;;7385808;19;20033;-77
2023/10/11 05:33:31;;;;;;;21.75;6.22;;;16.90;88.80;;;;;;7409158;19;20013;-78
2023/10/11 05:36:14;;;;;;;13.95;5.70;;;16.90;88.90;;;;;;7389235;19;20047;-78
2023/10/11 05:52:14;;;;;;;15.18;6.18;;;16.70;89.10;;;;;;7389513;19;20017;-78
2023/10/11 05:54:42;;;;;;;25.38;7.03;;;16.70;89.10;;;;;;7392097;19;20021;-78
2023/10/11 05:57:13;;;;;;;22.50;6.70;;;16.60;89.00;;;;;;7411200;19;20014;-78
2023/10/11 05:59:42;;;;;;;32.92;7.15;;;16.60;89.70;;;;;;7387619;19;20003;-78
2023/10/11 06:02:18;;;;;;;21.30;6.38;;;16.60;89.90;;;;;;7389878;19;20013;-77
2023/10/11 06:04:48;;;;;;;20.00;6.72;;;16.50;89.70;;;;;;7389841;19;20411;-77
2023/10/11 06:07:20;;;;;;;13.85;5.88;;;16.60;89.60;;;;;;7385391;19;20006;-78
2023/10/11 06:09:52;;;;;;;21.95;6.20;;;16.60;89.50;;;;;;7388235;19;20010;-78
2023/10/11 06:12:29;;;;;;;13.27;6.97;;;16.60;89.50;;;;;;7407498;19;20003;-78
2023/10/11 06:15:03;;;;;;;23.83;6.75;;;16.60;89.50;;;;;;7387381;19;20006;-78
2023/10/11 06:17:41;;;;;;;19.50;6.40;;;16.70;89.20;;;;;;7390769;19;20011;-78
2023/10/11 06:20:23;;;;;;;22.77;6.70;;;16.70;89.10;;;;;;7392431;19;20070;-78
2023/10/11 06:22:51;;;;;;;;;;;16.70;89.40;;;;;;7386974;19;20003;-78
2023/10/11 06:25:23;;;;;;;21.50;6.97;;;16.70;89.80;;;;;;7388392;19;20328;-76
2023/10/11 06:30:35;;;;;;;;;;;16.60;89.40;;;;;;7398640;19;20015;-77
2023/10/11 06:33:07;;;;;;;26.13;6.85;;;16.70;89.50;;;;;;7408619;19;19922;-79
2023/10/11 06:35:43;;;;;;;20.00;6.70;;;16.70;89.40;;;;;;7387023;19;20003;-78
2023/10/11 06:38:13;;;;;;;24.13;6.78;;;16.70;89.20;;;;;;7382316;19;20007;-77
2023/10/11 06:40:39;;;;;;;20.52;7.20;;;16.70;89.10;;;;;;7381494;19;20050;-78
2023/10/11 06:43:08;;;;;;;22.20;7.07;;;16.70;89.10;;;;;;7388256;19;20010;-78
2023/10/11 06:45:35;;;;;;;21.77;6.63;;;16.80;89.20;;;;;;7394733;19;20002;-78
2023/10/11 06:48:09;;;;;;;18.17;6.40;;;16.80;89.20;;;;;;7418848;19;20440;-78
2023/10/11 06:50:40;;;;;;;21.45;7.00;;;16.90;89.20;;;;;;7400729;19;20006;-79
2023/10/11 06:53:10;;;;;;;22.70;7.82;;;16.90;89.30;;;;;;7390214;19;20023;-78
2023/10/11 06:55:47;;;;;;;18.92;6.20;;;16.90;89.50;;;;;;7385203;19;20014;-77
2023/10/11 06:58:19;;;;;;;26.95;6.82;;;16.90;89.40;;;;;;7385134;19;20252;-78
2023/10/11 07:00:48;;;;;;;20.70;6.25;;;17.00;89.50;;;;;;7384540;19;20006;-78
2023/10/11 07:03:29;;;;;;;19.55;7.05;;;17.00;89.50;;;;;;7405075;19;20023;-78
2023/10/11 07:06:10;;;;;;;28.45;5.93;;;17.10;89.50;;;;;;7387960;19;20010;-78
2023/10/11 07:08:48;;;;;;;17.27;6.32;;;17.10;89.60;;;;;;7387962;19;20002;-78
2023/10/11 07:11:40;;;;;;;18.75;6.90;;;17.10;90.10;;;;;;7385717;19;20007;-78
2023/10/11 07:14:14;;;;;;;25.17;7.15;;;17.20;89.70;;;;;;7384587;19;20608;-78
2023/10/11 07:16:45;;;;;;;22.52;6.60;;;17.30;89.90;;;;;;7380856;19;20620;-78
2023/10/11 07:19:17;;;;;;;21.88;6.68;;;17.30;89.90;;;;;;7385530;19;20007;-79
2023/10/11 07:21:52;;;;;;;18.52;6.57;;;17.30;89.90;;;;;;7382447;19;20051;-78
2023/10/11 07:24:38;;;;;;;16.13;6.85;;;17.40;90.00;;;;;;7404398;19;20010;-76
2023/10/11 07:27:12;;;;;;;22.02;6.20;;;17.40;90.00;;;;;;7378928;19;20006;-77
2023/10/11 07:29:42;;;;;;;20.50;6.47;;;17.50;90.00;;;;;;7379751;19;20009;-77
2023/10/11 07:32:12;;;;;;;19.13;7.53;;;17.50;90.00;;;;;;7381514;19;20094;-77
2023/10/11 07:34:47;;;;;;;20.67;8.05;;;17.50;90.10;;;;;;7383659;19;20002;-78
2023/10/11 07:37:18;;;;;;;23.08;8.02;;;17.60;90.10;;;;;;7386661;19;20011;-78
2023/10/11 07:39:47;;;;;;;24.27;7.35;;;17.60;90.10;;;;;;7383330;19;20062;-78
2023/10/11 07:42:18;;;;;;;17.92;7.05;;;17.70;90.10;;;;;;7403149;19;20011;-78
2023/10/11 07:44:50;;;;;;;19.45;7.40;;;17.80;90.10;;;;;;7383381;19;20013;-78
2023/10/11 07:47:25;;;;;;;19.58;7.03;;;17.80;90.00;;;;;;7387532;19;20016;-78
2023/10/11 07:49:57;;;;;;;21.35;7.35;;;17.90;90.00;;;;;;7385807;19;20002;-78
2023/10/11 07:52:27;;;;;;;20.33;7.22;;;17.90;90.00;;;;;;7386944;19;20027;-78
2023/10/11 07:54:56;;;;;;;18.30;6.78;;;18.00;89.90;;;;;;7387048;19;20010;-78
2023/10/11 07:57:25;;;;;;;26.42;7.22;;;18.10;90.00;;;;;;7406650;19;20014;-78
2023/10/11 07:59:57;;;;;;;18.25;6.85;;;18.10;90.00;;;;;;7384320;19;20028;-78
2023/10/11 08:02:41;;;;;;;21.92;7.40;;;18.20;89.90;;;;;;7377377;19;20007;-77
2023/10/11 08:05:14;;;;;;;23.77;6.80;;;18.20;90.00;;;;;;7386274;19;20015;-78
2023/10/11 08:07:46;;;;;;;20.35;7.82;;;18.30;90.00;;;;;;7380503;19;20014;-77
2023/10/11 08:12:57;;;;;;;17.70;6.82;;;18.50;90.00;;;;;;7381952;19;20426;-77
2023/10/11 08:15:26;;;;;;;21.98;7.65;;;18.50;90.00;;;;;;7408686;19;20124;-78
2023/10/11 08:17:55;;;;;;;19.80;8.02;;;18.60;90.00;;;;;;7387452;19;20007;-78
2023/10/11 08:20:28;;;;;;;31.25;8.02;;;18.70;90.10;;;;;;7385719;19;20003;-78
2023/10/11 08:22:58;;;;;;;22.92;7.45;;;18.70;90.20;;;;;;7379927;19;20380;-78
2023/10/11 08:25:30;;;;;;;18.92;7.00;;;18.80;90.40;;;;;;7386905;19;20046;-78
2023/10/11 08:28:12;;;;;;;14.40;7.03;;;18.90;90.50;;;;;;7384621;19;20009;-78
2023/10/11 08:30:45;;;;;;;20.20;6.30;;;18.90;90.50;;;;;;7383682;19;20066;-78
2023/10/11 08:33:14;;;;;;;23.80;6.53;;;19.00;90.50;;;;;;7401504;19;20017;-78
2023/10/11 08:35:52;;;;;;;27.35;6.20;;;19.00;90.60;;;;;;7382237;19;20015;-78
2023/10/11 08:38:24;;;;;;;22.45;6.32;;;19.00;90.20;;;;;;7383256;19;20011;-78
2023/10/11 08:40:58;;;;;;;;;;;19.10;84.70;;;;;;7383451;19;19999;-78
2023/10/11 08:43:28;;;;;;;13.00;4.10;;;19.10;83.50;;;;;;7382844;19;19925;-79
2023/10/11 08:46:05;;;;;;;16.08;4.97;;;19.20;82.00;;;;;;7383439;19;20011;-79
2023/10/11 08:48:38;;;;;;;12.40;4.95;;;19.20;81.10;;;;;;7383039;19;20678;-79
2023/10/11 08:51:10;;;;;;;24.48;5.40;;;19.30;82.10;;;;;;7417436;19;20017;-78
2023/10/11 08:53:41;;;;;;;22.60;4.55;;;19.40;83.60;;;;;;7409275;19;20010;-77
2023/10/11 08:56:14;;;;;;;15.02;4.82;;;19.40;80.20;;;;;;7409696;19;20003;-78
2023/10/11 08:58:47;;;;;;;19.02;4.40;;;19.40;80.50;;;;;;7411295;19;20006;-78
2023/10/11 09:01:18;;;;;;;14.25;4.38;;;19.40;79.70;;;;;;7404297;19;20006;-77
2023/10/11 09:04:06;;;;;;;17.75;3.85;;;19.50;78.50;;;;;;7387268;19;20014;-78
2023/10/11 09:06:38;;;;;;;16.10;3.95;;;19.50;77.80;;;;;;7387759;19;20210;-77
2023/10/11 09:09:07;;;;;;;;;;;19.50;78.20;;;;;;7406022;19;20023;-77
2023/10/11 09:11:40;;;;;;;17.33;4.47;;;19.60;78.00;;;;;;7385670;19;20250;-77
2023/10/11 09:14:13;;;;;;;18.25;4.60;;;19.60;79.10;;;;;;7385072;19;20066;-78
2023/10/11 09:16:42;;;;;;;15.77;4.55;;;19.60;78.50;;;;;;7390013;19;20027;-79
2023/10/11 09:19:19;;;;;;;15.15;4.40;;;19.70;78.50;;;;;;7389381;19;20024;-78
2023/10/11 09:22:02;;;;;;;15.27;4.55;;;19.70;78.60;;;;;;7388612;19;20003;-78
2023/10/11 09:24:38;;;;;;;14.68;4.28;;;19.70;78.80;;;;;;7412300;19;20022;-78
2023/10/11 09:27:18;;;;;;;15.13;4.40;;;19.80;78.80;;;;;;7386914;19;20007;-78
2023/10/11 09:29:47;;;;;;;18.85;5.05;;;19.90;79.00;;;;;;7389853;19;20021;-78
2023/10/11 09:32:19;;;;;;;27.38;4.53;;;20.00;79.30;;;;;;7389518;19;20518;-80
2023/10/11 09:34:51;;;;;;;28.45;4.60;;;20.00;79.50;;;;;;7388452;19;20022;-80
2023/10/11 09:37:23;;;;;;;17.88;4.95;;;20.00;79.70;;;;;;7390219;19;20015;-79
2023/10/11 09:39:54;;;;;;;20.55;6.40;;;20.00;80.00;;;;;;7387004;19;20027;-78
2023/10/11 09:42:29;;;;;;;22.00;5.30;;;20.10;80.30;;;;;;7407464;19;20014;-77
2023/10/11 09:44:59;;;;;;;14.65;5.32;;;20.10;80.50;;;;;;7389197;19;20035;-78
2023/10/11 09:47:31;;;;;;;15.35;4.18;;;20.20;80.70;;;;;;7386387;19;20024;-78
2023/10/11 09:50:05;;;;;;;24.00;4.90;;;20.20;81.20;;;;;;7386123;19;20017;-77
2023/10/11 09:52:37;;;;;;;18.00;5.13;;;20.30;81.60;;;;;;7382417;19;20019;-77
2023/10/11 09:55:17;;;;;;;18.63;4.95;;;20.20;81.70;;;;;;7384627;19;20234;-78
2023/10/11 09:57:54;;;;;;;23.67;4.78;;;20.20;82.10;;;;;;7390181;19;20116;-78
2023/10/11 10:00:39;;;;;;;15.43;5.13;;;20.30;82.50;;;;;;7409401;19;20007;-79
2023/10/11 10:03:13;;;;;;;15.73;4.50;;;20.30;82.70;;;;;;7387482;19;20013;-78
2023/10/11 10:06:18;;;;;;;19.58;4.70;;;20.30;82.50;;;;;;7388421;19;20010;-78
2023/10/11 10:09:23;;;;;;;15.20;4.82;;;20.20;83.10;;;;;;7387760;19;20578;-78
2023/10/11 10:12:20;;;;;;;18.15;5.05;;;20.40;83.10;;;;;;7388480;19;20013;-78
2023/10/11 10:14:53;;;;;;;18.30;4.45;;;20.50;82.50;;;;;;7386134;19;20031;-78
2023/10/11 10:17:22;;;;;;;25.58;5.10;;;20.50;82.90;;;;;;7387267;19;20014;-78
2023/10/11 10:19:50;;;;;;;24.75;5.05;;;20.50;82.30;;;;;;7388098;19;20003;-78
2023/10/11 10:22:22;;;;;;;18.17;5.60;;;20.50;82.70;;;;;;7381725;19;20275;-77
2023/10/11 10:24:56;;;;;;;17.10;4.78;;;20.60;82.80;;;;;;7391322;19;20023;-78
2023/10/11 10:27:37;;;;;;;18.10;4.70;;;20.70;82.50;;;;;;7407479;19;20409;-78
2023/10/11 10:30:10;;;;;;;21.58;4.43;;;20.80;82.40;;;;;;7397741;19;20007;-76
2023/10/11 10:32:39;;;;;;;24.75;4.60;;;20.80;83.00;;;;;;7388686;19;20016;-78
2023/10/11 10:35:36;;;;;;;26.67;4.90;;;20.80;83.00;;;;;;7383551;19;20389;-78
2023/10/11 10:38:09;;;;;;;23.30;5.13;;;20.90;82.10;;;;;;7385907;19;20007;-78
2023/10/11 10:40:42;;;;;;;22.83;5.13;;;20.90;82.00;;;;;;7386668;19;20058;-78
2023/10/11 10:43:27;;;;;;;17.15;4.88;;;21.00;82.10;;;;;;7386019;19;20007;-78
2023/10/11 10:45:59;;;;;;;18.25;4.80;;;21.00;82.20;;;;;;7386275;19;20019;-79
2023/10/11 10:48:39;;;;;;;28.38;4.75;;;21.00;82.00;;;;;;7410146;19;20369;-78
2023/10/11 10:51:05;;;;;;;17.50;5.15;;;21.10;81.50;;;;;;7384401;19;20028;-77
2023/10/11 10:53:42;;;;;;;34.17;5.93;;;21.10;80.60;;;;;;7384858;19;20078;-78
2023/10/11 10:56:24;;;;;;;17.75;4.25;;;21.20;81.20;;;;;;7387837;19;20006;-77
2023/10/11 10:59:03;;;;;;;23.38;4.88;;;21.30;80.90;;;;;;7402580;19;20003;-77
2023/10/11 11:01:34;;;;;;;23.77;4.70;;;21.30;80.20;;;;;;7402294;19;20035;-78
2023/10/11 11:04:00;;;;;;;24.02;4.90;;;21.40;80.00;;;;;;7404966;19;20056;-78
2023/10/11 11:06:39;;;;;;;16.90;4.28;;;21.40;80.10;;;;;;7425837;19;20017;-77
2023/10/11 11:09:13;;;;;;;17.50;4.70;;;21.40;80.20;;;;;;7391280;19;20014;-78
2023/10/11 11:11:49;;;;;;;22.15;4.85;;;21.50;79.90;;;;;;7387143;19;20011;-79
2023/10/11 11:14:19;;;;;;;9.00;3.75;;;21.60;77.70;;;;;;7383616;19;20009;-79
2023/10/11 11:16:57;;;;;;;15.80;4.32;;;21.70;76.60;;;;;;7380803;19;20091;-78
2023/10/11 11:19:25;;;;;;;14.20;4.43;;;21.70;76.90;;;;;;7379095;19;20006;-77
2023/10/11 11:22:11;;;;;;;12.73;4.05;;;21.70;76.30;;;;;;7381611;19;20397;-78
2023/10/11 11:24:38;;;;;;;21.50;4.40;;;21.80;76.70;;;;;;7386350;19;20006;-78
2023/10/11 11:27:18;;;;;;;21.05;4.82;;;21.90;76.80;;;;;;7407367;19;20358;-79
2023/10/11 11:29:47;;;;;;;20.55;4.25;;;21.90;75.80;;;;;;7384728;19;20046;-78
2023/10/11 11:32:19;;;;;;;12.18;4.30;;;22.00;76.70;;;;;;7384061;19;20266;-78
2023/10/11 11:35:02;;;;;;;22.83;4.28;;;22.10;77.10;;;;;;7382141;19;20006;-78
2023/10/11 11:37:38;;;;;;;13.90;4.72;;;22.20;77.60;;;;;;7386301;19;20018;-78
2023/10/11 11:40:19;;;;;;;14.88;4.40;;;22.20;77.40;;;;;;7387116;19;20006;-79
2023/10/11 11:42:52;;;;;;;9.25;4.07;;;22.30;77.00;;;;;;7388035;19;20007;-78
2023/10/11 11:45:19;;;;;;;19.10;4.78;;;22.40;75.70;;;;;;7403636;19;20010;-79
2023/10/11 11:47:56;;;;;;;15.38;4.40;;;22.50;75.60;;;;;;7381588;19;20284;-78
2023/10/11 11:50:25;;;;;;;27.73;4.40;;;22.50;75.80;;;;;;7383370;19;20006;-79
2023/10/11 11:52:57;;;;;;;14.82;4.45;;;22.60;74.60;;;;;;7384035;19;20043;-77
2023/10/11 11:55:23;;;;;;;16.00;4.20;;;22.60;75.10;;;;;;7380996;19;20006;-77
2023/10/11 11:57:55;;;;;;;20.20;4.90;;;22.70;73.20;;;;;;7378206;19;20016;-77
2023/10/11 12:00:38;;;;;;;22.98;4.35;;;22.70;73.80;;;;;;7400314;19;20023;-77
2023/10/11 12:03:08;;;;;;;18.85;4.55;;;22.80;72.90;;;;;;7381021;19;20007;-78
2023/10/11 12:05:40;;;;;;;10.00;4.32;;;22.70;72.90;;;;;;7384770;19;20011;-78
2023/10/11 12:08:18;;;;;;;13.13;3.83;;;22.90;73.40;;;;;;7383647;19;20052;-77
2023/10/11 12:10:49;;;;;;;25.95;4.38;;;23.00;73.10;;;;;;7385329;19;20019;-78
2023/10/11 12:13:25;;;;;;;12.80;3.92;;;23.10;73.10;;;;;;7386357;19;20043;-78
2023/10/11 12:15:56;;;;;;;18.02;4.47;;;23.30;73.50;;;;;;7384818;19;20031;-78
2023/10/11 12:18:33;;;;;;;19.50;4.50;;;23.40;71.60;;;;;;7404267;19;20011;-78
2023/10/11 12:21:10;;;;;;;17.90;4.32;;;23.50;71.60;;;;;;7387108;19;20010;-78
2023/10/11 12:23:46;;;;;;;13.57;4.65;;;23.70;72.10;;;;;;7390142;19;19998;-78
2023/10/11 12:26:16;;;;;;;11.00;3.50;;;23.70;70.80;;;;;;7389298;19;20370;-77
2023/10/11 12:28:48;;;;;;;18.90;4.40;;;23.70;70.80;;;;;;7388845;19;20014;-78
2023/10/11 12:31:18;;;;;;;12.88;4.30;;;23.70;70.80;;;;;;7387464;19;20010;-78
2023/10/11 12:33:47;;;;;;;13.48;4.03;;;23.70;71.00;;;;;;7390585;19;20007;-78
2023/10/11 12:36:19;;;;;;;11.55;4.10;;;23.50;70.40;;;;;;7406164;19;20023;-77
2023/10/11 12:38:48;;;;;;;9.98;3.95;;;23.50;71.30;;;;;;7387641;19;20063;-77
2023/10/11 12:41:17;;;;;;;13.38;4.25;;;23.60;70.70;;;;;;7385016;19;20119;-78
2023/10/11 12:43:49;;;;;;;14.00;4.38;;;23.60;70.80;;;;;;7385803;19;19999;-78
2023/10/11 12:46:18;;;;;;;22.13;4.47;;;23.70;70.50;;;;;;7385908;19;20013;-77
2023/10/11 12:48:54;;;;;;;15.70;4.25;;;23.80;69.40;;;;;;7387061;19;20010;-78
2023/10/11 12:51:24;;;;;;;15.45;4.35;;;23.70;69.30;;;;;;7410009;19;20030;-78
2023/10/11 12:53:55;;;;;;;13.15;4.40;;;23.60;68.70;;;;;;7389152;19;20023;-78
2023/10/11 12:56:24;;;;;;;15.60;4.38;;;23.60;68.40;;;;;;7389073;19;20108;-77
2023/10/11 12:58:57;;;;;;;18.27;4.55;;;23.70;68.90;;;;;;7388117;19;20011;-78
2023/10/11 13:01:40;;;;;;;17.20;4.05;;;23.80;68.10;;;;;;7394735;19;20374;-78
2023/10/11 13:04:17;;;;;;;10.57;4.47;;;23.80;68.40;;;;;;7397641;19;20007;-77
2023/10/11 13:06:49;;;;;;;17.23;4.45;;;23.90;68.00;;;;;;7388743;19;20010;-79
2023/10/11 13:09:21;;;;;;;21.60;4.30;;;23.90;67.80;;;;;;7409907;19;20010;-79
2023/10/11 13:11:51;;;;;;;19.58;4.32;;;24.00;68.00;;;;;;7385001;19;20010;-77
2023/10/11 13:14:25;;;;;;;15.85;4.30;;;24.10;68.10;;;;;;7387435;19;20006;-78
2023/10/11 13:16:55;;;;;;;7.72;3.60;;;24.10;66.20;;;;;;7389227;19;20042;-78
2023/10/11 13:19:24;;;;;;;14.23;4.05;;;24.20;65.80;;;;;;7385215;19;20003;-78
2023/10/11 13:21:55;;;;;;;17.70;4.05;;;24.30;66.10;;;;;;7385644;19;20039;-77
2023/10/11 13:24:26;;;;;;;12.27;3.83;;;24.40;66.00;;;;;;7411945;19;20048;-78
2023/10/11 13:26:56;;;;;;;15.43;4.10;;;24.50;64.20;;;;;;7387860;19;20027;-78
2023/10/11 13:29:28;;;;;;;18.10;4.50;;;24.50;63.90;;;;;;7386096;19;20042;-78
2023/10/11 13:31:58;;;;;;;14.35;4.35;;;24.60;63.80;;;;;;7387795;19;20024;-79
2023/10/11 13:34:29;;;;;;;9.43;3.75;;;24.80;64.10;;;;;;7387394;19;20010;-78
2023/10/11 13:36:58;;;;;;;18.03;4.47;;;24.80;63.60;;;;;;7387027;19;20047;-78
2023/10/11 13:39:38;;;;;;;10.98;3.97;;;24.90;63.90;;;;;;7412110;19;20007;-79